Shokyu Maru — JG5288 — position and weather

sailwx.info

Track history (hours):
 
Tides and Currents Weather Stations Pressure Air Temp Water Temp Dewpoint Dewpoint Depression Visibility Wind Speed Wind Dir Waves Ship Positions

Shokyu Maru

Last reported at 2017-Oct-22 03:30 UTC. Time now 2017-Oct-22 12:21 UTC.
Position N 35°34' E 139°56'.

Length 91 m; draft 3.8 m.

Type: Ship. MMSI: 431000253.

Date/timePositionNaut miles runAvg speedWind from/ knotsBaromVisibWave heightAir tempDewpointWater temp
2017-Oct-22 03:30N 35°34' E 139°56'5 8.9
2017-Oct-22 02:58N 35°38' E 139°59'3 0.5
2017-Oct-21 21:42N 35°40' E 139°57'4 8.2
2017-Oct-21 21:15N 35°37' E 139°58'3 9.2
2017-Oct-21 20:58N 35°35' E 139°55'0 0.0
2017-Oct-21 14:31N 35°35' E 139°55'4 7.9
2017-Oct-21 14:00N 35°32' E 139°52'5 9.2
2017-Oct-21 13:31N 35°31' E 139°46'1 1.4
2017-Oct-21 12:58N 35°31' E 139°46'0 0.0
2017-Oct-21 10:13N 35°31' E 139°46'0 0.0
2017-Oct-21 09:55N 35°31' E 139°46'0 0.0
2017-Oct-21 09:25N 35°31' E 139°46'0 0.0
2017-Oct-21 08:55N 35°31' E 139°46'0 0.0
2017-Oct-21 08:25N 35°31' E 139°46'0 0.0
2017-Oct-21 07:55N 35°31' E 139°46'0 0.0
2017-Oct-21 07:25N 35°31' E 139°46'0 0.0
2017-Oct-21 06:55N 35°31' E 139°46'0 0.0
2017-Oct-21 06:25N 35°31' E 139°46'3 6.4
2017-Oct-21 06:00N 35°30' E 139°43'3 5.4
2017-Oct-21 05:30N 35°27' E 139°44'3 6.8
2017-Oct-21 05:00N 35°28' E 139°48'611.4
2017-Oct-21 04:30N 35°32' E 139°53'611.6
2017-Oct-21 04:00N 35°37' E 139°57'1 0.2
2017-Oct-20 21:14N 35°38' E 139°59'210.1
2017-Oct-20 21:00N 35°36' E 139°56'1 0.2
2017-Oct-20 15:38N 35°36' E 139°55'0 0.0
2017-Oct-20 15:28N 35°36' E 139°55'0 0.0
2017-Oct-20 14:56N 35°36' E 139°55'0 0.0
2017-Oct-20 14:29N 35°36' E 139°55'0 0.0
2017-Oct-20 11:55N 35°36' E 139°55'3 5.9
2017-Oct-20 11:26N 35°33' E 139°57'4 9.8
2017-Oct-20 11:00N 35°30' E 140°01'0 0.0
2017-Oct-20 06:31N 35°30' E 140°01'0 7.7
2017-Oct-20 06:30N 35°30' E 140°01'3 6.0
2017-Oct-20 06:00N 35°33' E 139°58'3 2.8
2017-Oct-20 04:47N 35°35' E 139°55'3 8.4
2017-Oct-20 04:28N 35°37' E 139°57'0 0.0
2017-Oct-19 22:10N 35°37' E 139°57'1 8.8
2017-Oct-19 22:01N 35°36' E 139°55'0 0.3
2017-Oct-19 21:16N 35°36' E 139°55'0 0.0
2017-Oct-19 20:37N 35°36' E 139°55'0 0.0
2017-Oct-19 20:28N 35°36' E 139°55'0 0.0
2017-Oct-19 19:55N 35°36' E 139°55'0 0.0
2017-Oct-19 18:10N 35°36' E 139°55'0 0.0
2017-Oct-19 17:07N 35°36' E 139°55'0 0.1
2017-Oct-19 16:58N 35°36' E 139°55'0 0.0
2017-Oct-19 16:28N 35°36' E 139°55'0 0.0
2017-Oct-19 15:58N 35°36' E 139°55'0 0.0
2017-Oct-19 15:25N 35°36' E 139°55'0 0.0
2017-Oct-19 10:18N 35°36' E 139°55'3 7.4
2017-Oct-19 09:54N 35°34' E 139°58'4 9.8
2017-Oct-19 09:30N 35°32' E 140°02'1 0.1
2017-Oct-19 03:49N 35°32' E 140°03'611.7
2017-Oct-19 03:16N 35°37' E 139°59'1 0.1
2017-Oct-18 21:10N 35°37' E 139°58'210.1
2017-Oct-18 20:59N 35°36' E 139°56'1 0.3
2017-Oct-18 16:27N 35°36' E 139°55'0 0.0
2017-Oct-18 16:00N 35°36' E 139°55'0 0.0
2017-Oct-18 15:27N 35°36' E 139°55'0 0.0
2017-Oct-18 14:57N 35°36' E 139°55'0 0.0
2017-Oct-18 13:57N 35°36' E 139°55'0 0.0
2017-Oct-18 13:03N 35°36' E 139°55'0 0.0
2017-Oct-18 12:39N 35°36' E 139°55'0 0.1
2017-Oct-18 12:30N 35°36' E 139°55'0 0.0
2017-Oct-18 12:00N 35°36' E 139°55'0 0.0
2017-Oct-18 11:30N 35°36' E 139°55'0 0.0
2017-Oct-18 11:00N 35°36' E 139°55'0 0.0
2017-Oct-18 10:30N 35°36' E 139°55'0 0.0
2017-Oct-18 09:57N 35°36' E 139°55'0 0.0
2017-Oct-18 08:33N 35°36' E 139°55'0 0.0
2017-Oct-18 08:15N 35°36' E 139°55'0 0.2
2017-Oct-18 08:00N 35°36' E 139°55'3 7.0
2017-Oct-18 07:30N 35°33' E 139°58'4 0.9
2017-Oct-18 02:41N 35°30' E 140°01'210.6
2017-Oct-18 02:31N 35°31' E 139°59'5 9.5
2017-Oct-18 02:00N 35°35' E 139°55'510.3
2017-Oct-18 01:31N 35°39' E 139°58'1 0.3
2017-Oct-17 21:18N 35°38' E 139°59'3 9.6
2017-Oct-17 21:01N 35°36' E 139°56'0 0.6
2017-Oct-17 20:21N 35°36' E 139°55'0 0.0
2017-Oct-17 19:51N 35°36' E 139°55'0 0.0
2017-Oct-17 19:24N 35°36' E 139°55'0 0.0
2017-Oct-17 18:51N 35°36' E 139°55'0 0.0
2017-Oct-17 18:30N 35°36' E 139°55'0 0.0
2017-Oct-17 17:57N 35°36' E 139°55'0 0.0
2017-Oct-17 17:21N 35°36' E 139°55'0 0.0
2017-Oct-17 17:00N 35°36' E 139°55'0 0.1
2017-Oct-17 16:27N 35°36' E 139°55'0 0.1
2017-Oct-17 15:57N 35°36' E 139°55'0 0.1
2017-Oct-17 15:30N 35°36' E 139°55'0 0.0
2017-Oct-17 14:54N 35°36' E 139°55'0 0.0
2017-Oct-17 14:30N 35°36' E 139°55'0 0.0
2017-Oct-17 13:51N 35°36' E 139°55'0 0.0
2017-Oct-17 11:28N 35°36' E 139°55'3 6.8
2017-Oct-17 10:59N 35°34' E 139°53'510.1
2017-Oct-17 10:30N 35°30' E 139°48'2 4.0
2017-Oct-17 09:59N 35°31' E 139°46'0 0.0
2017-Oct-17 09:29N 35°31' E 139°46'0 0.0
2017-Oct-17 08:59N 35°31' E 139°46'0 0.0
2017-Oct-17 08:29N 35°31' E 139°46'0 0.0
2017-Oct-17 07:59N 35°31' E 139°46'0 0.0
2017-Oct-17 07:23N 35°31' E 139°46'0 0.0
2017-Oct-17 06:59N 35°31' E 139°46'0 0.0
2017-Oct-17 06:29N 35°31' E 139°46'0 0.0
2017-Oct-17 05:59N 35°31' E 139°46'3 7.0
2017-Oct-17 05:30N 35°29' E 139°43'2 4.9
2017-Oct-17 05:00N 35°27' E 139°44'3 6.4
2017-Oct-17 04:30N 35°28' E 139°48'510.5
2017-Oct-17 04:00N 35°32' E 139°53'810.6
2017-Oct-17 03:15N 35°38' E 139°59'2 0.3
2017-Oct-16 21:04N 35°37' E 139°57'110.6
2017-Oct-16 21:00N 35°37' E 139°56'1 2.3
2017-Oct-16 20:30N 35°36' E 139°55'0 0.0
2017-Oct-16 20:00N 35°36' E 139°55'0 0.0
2017-Oct-16 19:27N 35°36' E 139°55'0 0.0
2017-Oct-16 19:00N 35°36' E 139°55'0 0.0
2017-Oct-16 18:30N 35°36' E 139°55'0 0.0
2017-Oct-16 17:54N 35°36' E 139°55'0 0.0
2017-Oct-16 17:18N 35°36' E 139°55'0 0.0
2017-Oct-16 16:57N 35°36' E 139°55'0 0.0
2017-Oct-16 16:30N 35°36' E 139°55'0 0.0
2017-Oct-16 16:00N 35°36' E 139°55'0 0.0
2017-Oct-16 15:30N 35°36' E 139°55'0 0.0
2017-Oct-16 15:00N 35°36' E 139°55'0 0.0
2017-Oct-16 14:00N 35°36' E 139°55'0 0.0
2017-Oct-16 12:48N 35°36' E 139°55'0 0.0
2017-Oct-16 07:15N 35°36' E 139°55'1 4.3
2017-Oct-16 07:00N 35°35' E 139°54'5 9.9
2017-Oct-16 06:30N 35°31' E 139°51'5 9.9
2017-Oct-16 06:00N 35°28' E 139°46'5 9.4
2017-Oct-16 05:30N 35°24' E 139°42'2 4.5
2017-Oct-16 04:59N 35°24' E 139°40'0 0.0
2017-Oct-16 04:29N 35°24' E 139°40'0 0.0
2017-Oct-16 03:59N 35°24' E 139°40'0 0.0
2017-Oct-16 03:29N 35°24' E 139°40'0 0.0
2017-Oct-16 02:59N 35°24' E 139°40'0 0.0
2017-Oct-16 02:29N 35°24' E 139°40'0 0.0
2017-Oct-16 01:56N 35°24' E 139°40'0 0.0
2017-Oct-16 01:29N 35°24' E 139°40'0 0.0
2017-Oct-16 00:59N 35°24' E 139°40'0 0.0
2017-Oct-16 00:29N 35°24' E 139°40'0 0.0
2017-Oct-15 23:59N 35°24' E 139°40'0 0.0
2017-Oct-15 23:29N 35°24' E 139°40'0 1.0
2017-Oct-15 23:00N 35°24' E 139°40'3 5.6
2017-Oct-15 22:30N 35°25' E 139°43'611.7
2017-Oct-15 22:00N 35°28' E 139°49'1311.8
2017-Oct-15 20:54N 35°38' E 139°59'2 0.1
2017-Oct-15 04:09N 35°36' E 139°58'210.1
2017-Oct-15 03:57N 35°35' E 139°56'1 1.5
2017-Oct-15 03:29N 35°36' E 139°56'2 0.3
2017-Oct-14 21:06N 35°37' E 139°57'110.4
2017-Oct-14 21:00N 35°37' E 139°56'1 1.5
2017-Oct-14 20:25N 35°36' E 139°55'0 0.0
2017-Oct-14 19:58N 35°36' E 139°55'0 0.0
2017-Oct-14 19:25N 35°36' E 139°55'0 0.0
2017-Oct-14 18:58N 35°36' E 139°55'0 0.0
2017-Oct-14 18:22N 35°36' E 139°55'0 0.0
2017-Oct-14 17:58N 35°36' E 139°55'0 0.0
2017-Oct-14 17:28N 35°36' E 139°55'0 0.0
2017-Oct-14 16:55N 35°36' E 139°55'0 0.0
2017-Oct-14 16:22N 35°36' E 139°55'0 0.0
2017-Oct-14 14:58N 35°36' E 139°55'0 0.0
2017-Oct-14 14:22N 35°36' E 139°55'0 0.0
2017-Oct-14 13:52N 35°36' E 139°55'0 0.0
2017-Oct-14 13:28N 35°36' E 139°55'0 0.0
2017-Oct-14 12:58N 35°36' E 139°55'0 0.0
2017-Oct-14 12:28N 35°36' E 139°55'0 0.0
2017-Oct-14 11:58N 35°36' E 139°55'0 0.0
2017-Oct-14 11:11N 35°36' E 139°55'0 0.8
2017-Oct-14 11:00N 35°36' E 139°55'510.0
2017-Oct-14 10:30N 35°32' E 139°51'510.1
2017-Oct-14 10:00N 35°28' E 139°47'510.1
2017-Oct-14 09:31N 35°25' E 139°43'3 5.3
2017-Oct-14 09:01N 35°24' E 139°40'0 0.1
2017-Oct-14 08:31N 35°24' E 139°40'0 0.0
2017-Oct-14 08:01N 35°24' E 139°40'0 0.0
2017-Oct-14 07:31N 35°24' E 139°40'0 0.0
2017-Oct-14 07:01N 35°24' E 139°40'0 0.0
2017-Oct-14 06:31N 35°24' E 139°40'0 0.0
2017-Oct-14 06:00N 35°24' E 139°40'0 0.0
2017-Oct-14 05:30N 35°24' E 139°40'0 0.0
2017-Oct-14 05:01N 35°24' E 139°40'0 0.0
2017-Oct-14 04:31N 35°24' E 139°40'0 0.0
2017-Oct-14 04:01N 35°24' E 139°40'0 0.0
2017-Oct-14 03:30N 35°24' E 139°40'2 4.2
2017-Oct-14 03:00N 35°24' E 139°42'612.3
2017-Oct-14 02:31N 35°28' E 139°48'612.0
2017-Oct-14 02:01N 35°32' E 139°53'612.0
2017-Oct-14 01:29N 35°37' E 139°58'1 0.1
2017-Oct-13 21:10N 35°38' E 139°58'210.3
2017-Oct-13 21:00N 35°37' E 139°56'1 0.1
2017-Oct-13 12:22N 35°36' E 139°55'2 5.0
2017-Oct-13 12:00N 35°35' E 139°54'510.4
2017-Oct-13 11:30N 35°31' E 139°49'3 5.1
2017-Oct-13 10:58N 35°31' E 139°46'0 0.0
2017-Oct-13 10:28N 35°31' E 139°46'0 0.0
2017-Oct-13 09:58N 35°31' E 139°46'0 0.0
2017-Oct-13 09:28N 35°31' E 139°46'0 0.0
2017-Oct-13 08:58N 35°31' E 139°46'0 0.0
2017-Oct-13 08:25N 35°31' E 139°46'0 0.0
2017-Oct-13 07:58N 35°31' E 139°46'0 0.0
2017-Oct-13 07:28N 35°31' E 139°46'2 3.4
2017-Oct-13 07:00N 35°30' E 139°45'4 7.2
2017-Oct-13 06:31N 35°27' E 139°43'1 2.2
2017-Oct-13 06:00N 35°27' E 139°44'3 6.9
2017-Oct-13 05:31N 35°28' E 139°48'5 9.2
2017-Oct-13 05:00N 35°31' E 139°52'10 1.5
2017-Oct-12 22:36N 35°40' E 139°57'4 7.5
2017-Oct-12 22:07N 35°37' E 139°57'1 8.6
2017-Oct-12 21:59N 35°36' E 139°56'1 0.7
2017-Oct-12 21:09N 35°36' E 139°55'0 0.0
2017-Oct-12 19:36N 35°36' E 139°55'0 0.0
2017-Oct-12 19:12N 35°36' E 139°55'0 0.0
2017-Oct-12 19:00N 35°36' E 139°55'0 0.0
2017-Oct-12 18:30N 35°36' E 139°55'0 0.1
2017-Oct-12 18:00N 35°36' E 139°55'0 0.0
2017-Oct-12 17:27N 35°36' E 139°55'0 0.0
2017-Oct-12 17:00N 35°36' E 139°55'0 0.0
2017-Oct-12 16:24N 35°36' E 139°55'0 0.0
2017-Oct-12 16:00N 35°36' E 139°55'0 0.1
2017-Oct-12 15:03N 35°36' E 139°55'0 0.0
2017-Oct-12 15:00N 35°36' E 139°55'0 0.1
2017-Oct-12 14:27N 35°36' E 139°55'0 0.0
2017-Oct-12 14:00N 35°36' E 139°55'0 0.0
2017-Oct-12 13:27N 35°36' E 139°55'0 0.1
2017-Oct-12 12:48N 35°36' E 139°55'1 1.9
2017-Oct-12 12:29N 35°35' E 139°55'710.7
2017-Oct-12 11:50N 35°30' E 140°01'1 0.2
2017-Oct-12 06:47N 35°30' E 140°02'1 4.5
2017-Oct-12 06:29N 35°31' E 140°01'1 2.8
2017-Oct-12 06:00N 35°32' E 139°59'0 0.9
2017-Oct-12 05:30N 35°32' E 139°59'4 8.7
2017-Oct-12 05:00N 35°34' E 139°55'3 6.3
2017-Oct-12 04:30N 35°37' E 139°57'  
Track history (hours):
 
Tides and Currents Weather Stations Pressure Air Temp Water Temp Dewpoint Dewpoint Depression Visibility Wind Speed Wind Dir Waves Ship Positions

Shokyu Maru

Last reported at 2017-Oct-22 03:30 UTC. Time now 2017-Oct-22 12:21 UTC.
Position N 35°34' E 139°56'.

Length 91 m; draft 3.8 m.

Type: Ship. MMSI: 431000253.

Date/timePositionNaut miles runAvg speedWind from/ knotsBaromVisibWave heightAir tempDewpointWater temp
2017-Oct-22 03:30N 35°34' E 139°56'5 8.9
2017-Oct-22 02:58N 35°38' E 139°59'3 0.5
2017-Oct-21 21:42N 35°40' E 139°57'4 8.2
2017-Oct-21 21:15N 35°37' E 139°58'3 9.2
2017-Oct-21 20:58N 35°35' E 139°55'0 0.0
2017-Oct-21 14:31N 35°35' E 139°55'4 7.9
2017-Oct-21 14:00N 35°32' E 139°52'5 9.2
2017-Oct-21 13:31N 35°31' E 139°46'1 1.4
2017-Oct-21 12:58N 35°31' E 139°46'0 0.0
2017-Oct-21 10:13N 35°31' E 139°46'0 0.0
2017-Oct-21 09:55N 35°31' E 139°46'0 0.0
2017-Oct-21 09:25N 35°31' E 139°46'0 0.0
2017-Oct-21 08:55N 35°31' E 139°46'0 0.0
2017-Oct-21 08:25N 35°31' E 139°46'0 0.0
2017-Oct-21 07:55N 35°31' E 139°46'0 0.0
2017-Oct-21 07:25N 35°31' E 139°46'0 0.0
2017-Oct-21 06:55N 35°31' E 139°46'0 0.0
2017-Oct-21 06:25N 35°31' E 139°46'3 6.4
2017-Oct-21 06:00N 35°30' E 139°43'3 5.4
2017-Oct-21 05:30N 35°27' E 139°44'3 6.8
2017-Oct-21 05:00N 35°28' E 139°48'611.4
2017-Oct-21 04:30N 35°32' E 139°53'611.6
2017-Oct-21 04:00N 35°37' E 139°57'1 0.2
2017-Oct-20 21:14N 35°38' E 139°59'210.1
2017-Oct-20 21:00N 35°36' E 139°56'1 0.2
2017-Oct-20 15:38N 35°36' E 139°55'0 0.0
2017-Oct-20 15:28N 35°36' E 139°55'0 0.0
2017-Oct-20 14:56N 35°36' E 139°55'0 0.0
2017-Oct-20 14:29N 35°36' E 139°55'0 0.0
2017-Oct-20 11:55N 35°36' E 139°55'3 5.9
2017-Oct-20 11:26N 35°33' E 139°57'4 9.8
2017-Oct-20 11:00N 35°30' E 140°01'0 0.0
2017-Oct-20 06:31N 35°30' E 140°01'0 7.7
2017-Oct-20 06:30N 35°30' E 140°01'3 6.0
2017-Oct-20 06:00N 35°33' E 139°58'3 2.8
2017-Oct-20 04:47N 35°35' E 139°55'3 8.4
2017-Oct-20 04:28N 35°37' E 139°57'0 0.0
2017-Oct-19 22:10N 35°37' E 139°57'1 8.8
2017-Oct-19 22:01N 35°36' E 139°55'0 0.3
2017-Oct-19 21:16N 35°36' E 139°55'0 0.0
2017-Oct-19 20:37N 35°36' E 139°55'0 0.0
2017-Oct-19 20:28N 35°36' E 139°55'0 0.0
2017-Oct-19 19:55N 35°36' E 139°55'0 0.0
2017-Oct-19 18:10N 35°36' E 139°55'0 0.0
2017-Oct-19 17:07N 35°36' E 139°55'0 0.1
2017-Oct-19 16:58N 35°36' E 139°55'0 0.0
2017-Oct-19 16:28N 35°36' E 139°55'0 0.0
2017-Oct-19 15:58N 35°36' E 139°55'0 0.0
2017-Oct-19 15:25N 35°36' E 139°55'0 0.0
2017-Oct-19 10:18N 35°36' E 139°55'3 7.4
2017-Oct-19 09:54N 35°34' E 139°58'4 9.8
2017-Oct-19 09:30N 35°32' E 140°02'1 0.1
2017-Oct-19 03:49N 35°32' E 140°03'611.7
2017-Oct-19 03:16N 35°37' E 139°59'1 0.1
2017-Oct-18 21:10N 35°37' E 139°58'210.1
2017-Oct-18 20:59N 35°36' E 139°56'1 0.3
2017-Oct-18 16:27N 35°36' E 139°55'0 0.0
2017-Oct-18 16:00N 35°36' E 139°55'0 0.0
2017-Oct-18 15:27N 35°36' E 139°55'0 0.0
2017-Oct-18 14:57N 35°36' E 139°55'0 0.0
2017-Oct-18 13:57N 35°36' E 139°55'0 0.0
2017-Oct-18 13:03N 35°36' E 139°55'0 0.0
2017-Oct-18 12:39N 35°36' E 139°55'0 0.1
2017-Oct-18 12:30N 35°36' E 139°55'0 0.0
2017-Oct-18 12:00N 35°36' E 139°55'0 0.0
2017-Oct-18 11:30N 35°36' E 139°55'0 0.0
2017-Oct-18 11:00N 35°36' E 139°55'0 0.0
2017-Oct-18 10:30N 35°36' E 139°55'0 0.0
2017-Oct-18 09:57N 35°36' E 139°55'0 0.0
2017-Oct-18 08:33N 35°36' E 139°55'0 0.0
2017-Oct-18 08:15N 35°36' E 139°55'0 0.2
2017-Oct-18 08:00N 35°36' E 139°55'3 7.0
2017-Oct-18 07:30N 35°33' E 139°58'4 0.9
2017-Oct-18 02:41N 35°30' E 140°01'210.6
2017-Oct-18 02:31N 35°31' E 139°59'5 9.5
2017-Oct-18 02:00N 35°35' E 139°55'510.3
2017-Oct-18 01:31N 35°39' E 139°58'1 0.3
2017-Oct-17 21:18N 35°38' E 139°59'3 9.6
2017-Oct-17 21:01N 35°36' E 139°56'0 0.6
2017-Oct-17 20:21N 35°36' E 139°55'0 0.0
2017-Oct-17 19:51N 35°36' E 139°55'0 0.0
2017-Oct-17 19:24N 35°36' E 139°55'0 0.0
2017-Oct-17 18:51N 35°36' E 139°55'0 0.0
2017-Oct-17 18:30N 35°36' E 139°55'0 0.0
2017-Oct-17 17:57N 35°36' E 139°55'0 0.0
2017-Oct-17 17:21N 35°36' E 139°55'0 0.0
2017-Oct-17 17:00N 35°36' E 139°55'0 0.1
2017-Oct-17 16:27N 35°36' E 139°55'0 0.1
2017-Oct-17 15:57N 35°36' E 139°55'0 0.1
2017-Oct-17 15:30N 35°36' E 139°55'0 0.0
2017-Oct-17 14:54N 35°36' E 139°55'0 0.0
2017-Oct-17 14:30N 35°36' E 139°55'0 0.0
2017-Oct-17 13:51N 35°36' E 139°55'0 0.0
2017-Oct-17 11:28N 35°36' E 139°55'3 6.8
2017-Oct-17 10:59N 35°34' E 139°53'510.1
2017-Oct-17 10:30N 35°30' E 139°48'2 4.0
2017-Oct-17 09:59N 35°31' E 139°46'0 0.0
2017-Oct-17 09:29N 35°31' E 139°46'0 0.0
2017-Oct-17 08:59N 35°31' E 139°46'0 0.0
2017-Oct-17 08:29N 35°31' E 139°46'0 0.0
2017-Oct-17 07:59N 35°31' E 139°46'0 0.0
2017-Oct-17 07:23N 35°31' E 139°46'0 0.0
2017-Oct-17 06:59N 35°31' E 139°46'0 0.0
2017-Oct-17 06:29N 35°31' E 139°46'0 0.0
2017-Oct-17 05:59N 35°31' E 139°46'3 7.0
2017-Oct-17 05:30N 35°29' E 139°43'2 4.9
2017-Oct-17 05:00N 35°27' E 139°44'3 6.4
2017-Oct-17 04:30N 35°28' E 139°48'510.5
2017-Oct-17 04:00N 35°32' E 139°53'810.6
2017-Oct-17 03:15N 35°38' E 139°59'2 0.3
2017-Oct-16 21:04N 35°37' E 139°57'110.6
2017-Oct-16 21:00N 35°37' E 139°56'1 2.3
2017-Oct-16 20:30N 35°36' E 139°55'0 0.0
2017-Oct-16 20:00N 35°36' E 139°55'0 0.0
2017-Oct-16 19:27N 35°36' E 139°55'0 0.0
2017-Oct-16 19:00N 35°36' E 139°55'0 0.0
2017-Oct-16 18:30N 35°36' E 139°55'0 0.0
2017-Oct-16 17:54N 35°36' E 139°55'0 0.0
2017-Oct-16 17:18N 35°36' E 139°55'0 0.0
2017-Oct-16 16:57N 35°36' E 139°55'0 0.0
2017-Oct-16 16:30N 35°36' E 139°55'0 0.0
2017-Oct-16 16:00N 35°36' E 139°55'0 0.0
2017-Oct-16 15:30N 35°36' E 139°55'0 0.0
2017-Oct-16 15:00N 35°36' E 139°55'0 0.0
2017-Oct-16 14:00N 35°36' E 139°55'0 0.0
2017-Oct-16 12:48N 35°36' E 139°55'0 0.0
2017-Oct-16 07:15N 35°36' E 139°55'1 4.3
2017-Oct-16 07:00N 35°35' E 139°54'5 9.9
2017-Oct-16 06:30N 35°31' E 139°51'5 9.9
2017-Oct-16 06:00N 35°28' E 139°46'5 9.4
2017-Oct-16 05:30N 35°24' E 139°42'2 4.5
2017-Oct-16 04:59N 35°24' E 139°40'0 0.0
2017-Oct-16 04:29N 35°24' E 139°40'0 0.0
2017-Oct-16 03:59N 35°24' E 139°40'0 0.0
2017-Oct-16 03:29N 35°24' E 139°40'0 0.0
2017-Oct-16 02:59N 35°24' E 139°40'0 0.0
2017-Oct-16 02:29N 35°24' E 139°40'0 0.0
2017-Oct-16 01:56N 35°24' E 139°40'0 0.0
2017-Oct-16 01:29N 35°24' E 139°40'0 0.0
2017-Oct-16 00:59N 35°24' E 139°40'0 0.0
2017-Oct-16 00:29N 35°24' E 139°40'0 0.0
2017-Oct-15 23:59N 35°24' E 139°40'0 0.0
2017-Oct-15 23:29N 35°24' E 139°40'0 1.0
2017-Oct-15 23:00N 35°24' E 139°40'3 5.6
2017-Oct-15 22:30N 35°25' E 139°43'611.7
2017-Oct-15 22:00N 35°28' E 139°49'1311.8
2017-Oct-15 20:54N 35°38' E 139°59'2 0.1
2017-Oct-15 04:09N 35°36' E 139°58'210.1
2017-Oct-15 03:57N 35°35' E 139°56'1 1.5
2017-Oct-15 03:29N 35°36' E 139°56'2 0.3
2017-Oct-14 21:06N 35°37' E 139°57'110.4
2017-Oct-14 21:00N 35°37' E 139°56'1 1.5
2017-Oct-14 20:25N 35°36' E 139°55'0 0.0
2017-Oct-14 19:58N 35°36' E 139°55'0 0.0
2017-Oct-14 19:25N 35°36' E 139°55'0 0.0
2017-Oct-14 18:58N 35°36' E 139°55'0 0.0
2017-Oct-14 18:22N 35°36' E 139°55'0 0.0
2017-Oct-14 17:58N 35°36' E 139°55'0 0.0
2017-Oct-14 17:28N 35°36' E 139°55'0 0.0
2017-Oct-14 16:55N 35°36' E 139°55'0 0.0
2017-Oct-14 16:22N 35°36' E 139°55'0 0.0
2017-Oct-14 14:58N 35°36' E 139°55'0 0.0
2017-Oct-14 14:22N 35°36' E 139°55'0 0.0
2017-Oct-14 13:52N 35°36' E 139°55'0 0.0
2017-Oct-14 13:28N 35°36' E 139°55'0 0.0
2017-Oct-14 12:58N 35°36' E 139°55'0 0.0
2017-Oct-14 12:28N 35°36' E 139°55'0 0.0
2017-Oct-14 11:58N 35°36' E 139°55'0 0.0
2017-Oct-14 11:11N 35°36' E 139°55'0 0.8
2017-Oct-14 11:00N 35°36' E 139°55'510.0
2017-Oct-14 10:30N 35°32' E 139°51'510.1
2017-Oct-14 10:00N 35°28' E 139°47'510.1
2017-Oct-14 09:31N 35°25' E 139°43'3 5.3
2017-Oct-14 09:01N 35°24' E 139°40'0 0.1
2017-Oct-14 08:31N 35°24' E 139°40'0 0.0
2017-Oct-14 08:01N 35°24' E 139°40'0 0.0
2017-Oct-14 07:31N 35°24' E 139°40'0 0.0
2017-Oct-14 07:01N 35°24' E 139°40'0 0.0
2017-Oct-14 06:31N 35°24' E 139°40'0 0.0
2017-Oct-14 06:00N 35°24' E 139°40'0 0.0
2017-Oct-14 05:30N 35°24' E 139°40'0 0.0
2017-Oct-14 05:01N 35°24' E 139°40'0 0.0
2017-Oct-14 04:31N 35°24' E 139°40'0 0.0
2017-Oct-14 04:01N 35°24' E 139°40'0 0.0
2017-Oct-14 03:30N 35°24' E 139°40'2 4.2
2017-Oct-14 03:00N 35°24' E 139°42'612.3
2017-Oct-14 02:31N 35°28' E 139°48'612.0
2017-Oct-14 02:01N 35°32' E 139°53'612.0
2017-Oct-14 01:29N 35°37' E 139°58'1 0.1
2017-Oct-13 21:10N 35°38' E 139°58'210.3
2017-Oct-13 21:00N 35°37' E 139°56'1 0.1
2017-Oct-13 12:22N 35°36' E 139°55'2 5.0
2017-Oct-13 12:00N 35°35' E 139°54'510.4
2017-Oct-13 11:30N 35°31' E 139°49'3 5.1
2017-Oct-13 10:58N 35°31' E 139°46'0 0.0
2017-Oct-13 10:28N 35°31' E 139°46'0 0.0
2017-Oct-13 09:58N 35°31' E 139°46'0 0.0
2017-Oct-13 09:28N 35°31' E 139°46'0 0.0
2017-Oct-13 08:58N 35°31' E 139°46'0 0.0
2017-Oct-13 08:25N 35°31' E 139°46'0 0.0
2017-Oct-13 07:58N 35°31' E 139°46'0 0.0
2017-Oct-13 07:28N 35°31' E 139°46'2 3.4
2017-Oct-13 07:00N 35°30' E 139°45'4 7.2
2017-Oct-13 06:31N 35°27' E 139°43'1 2.2
2017-Oct-13 06:00N 35°27' E 139°44'3 6.9
2017-Oct-13 05:31N 35°28' E 139°48'5 9.2
2017-Oct-13 05:00N 35°31' E 139°52'10 1.5
2017-Oct-12 22:36N 35°40' E 139°57'4 7.5
2017-Oct-12 22:07N 35°37' E 139°57'1 8.6
2017-Oct-12 21:59N 35°36' E 139°56'1 0.7
2017-Oct-12 21:09N 35°36' E 139°55'0 0.0
2017-Oct-12 19:36N 35°36' E 139°55'0 0.0
2017-Oct-12 19:12N 35°36' E 139°55'0 0.0
2017-Oct-12 19:00N 35°36' E 139°55'0 0.0
2017-Oct-12 18:30N 35°36' E 139°55'0 0.1
2017-Oct-12 18:00N 35°36' E 139°55'0 0.0
2017-Oct-12 17:27N 35°36' E 139°55'0 0.0
2017-Oct-12 17:00N 35°36' E 139°55'0 0.0
2017-Oct-12 16:24N 35°36' E 139°55'0 0.0
2017-Oct-12 16:00N 35°36' E 139°55'0 0.1
2017-Oct-12 15:03N 35°36' E 139°55'0 0.0
2017-Oct-12 15:00N 35°36' E 139°55'0 0.1
2017-Oct-12 14:27N 35°36' E 139°55'0 0.0
2017-Oct-12 14:00N 35°36' E 139°55'0 0.0
2017-Oct-12 13:27N 35°36' E 139°55'0 0.1
2017-Oct-12 12:48N 35°36' E 139°55'1 1.9
2017-Oct-12 12:29N 35°35' E 139°55'710.7
2017-Oct-12 11:50N 35°30' E 140°01'1 0.2
2017-Oct-12 06:47N 35°30' E 140°02'1 4.5
2017-Oct-12 06:29N 35°31' E 140°01'1 2.8
2017-Oct-12 06:00N 35°32' E 139°59'0 0.9
2017-Oct-12 05:30N 35°32' E 139°59'4 8.7
2017-Oct-12 05:00N 35°34' E 139°55'3 6.3
2017-Oct-12 04:30N 35°37' E 139°57'  

Dump ship's entire track history